Terminal Aerodrome Forecast
Issued by NWS

Home | Current Version | Previous Version | Text Only | Print | Product List | Glossary On
Versions: 1 2 3 4 5 6 7 8 9 10 11 12 13 14 15 16 17 18 19 20 21 22 23 24 25 26 27 28 29 30 31 32 33 34 35 36 37 38 39 40 41 42 43 44 45 46 47 48
000
FTUS43 KDTX 120626 RRA
TAFYIP
TAF
KYIP 120626Z 1206/1306 VRB04KT 3SM -SHSN OVC015
     FM120700 28010KT 5SM -SHSN BKN025 OVC035
     FM121000 30018G30KT P6SM BKN025 OVC035
     FM121300 31018G30KT P6SM BKN040
     FM130100 30012KT P6SM SCT035=

USA.gov is the U.S. government's official web portal to all federal, state and local government web resources and services.